createdAt,value
2022-08-04T00:00:40.189Z,87.10
2022-08-04T00:01:41.148Z,86.90
2022-08-04T00:02:41.984Z,86.99
2022-08-04T00:03:42.866Z,86.90
2022-08-04T00:04:43.749Z,87.30
2022-08-04T00:05:44.633Z,86.79
2022-08-04T00:06:45.515Z,86.49
2022-08-04T00:07:46.397Z,86.69
2022-08-04T00:08:47.269Z,86.39
2022-08-04T00:09:48.161Z,86.19
2022-08-04T00:10:49.045Z,85.99
2022-08-04T00:11:49.927Z,85.99
2022-08-04T00:12:50.811Z,86.49
2022-08-04T00:13:58.106Z,86.29
2022-08-04T00:14:53.472Z,85.99
2022-08-04T00:15:53.353Z,86.43
2022-08-04T00:16:54.227Z,86.73
2022-08-04T00:17:55.108Z,86.63
2022-08-04T00:18:55.982Z,86.43
2022-08-04T00:19:56.876Z,86.83
2022-08-04T00:20:57.748Z,87.54
2022-08-04T00:21:58.630Z,88.29
2022-08-04T00:22:59.513Z,88.19
2022-08-04T00:24:11.054Z,88.09
2022-08-04T00:25:02.177Z,88.19
2022-08-04T00:26:02.057Z,88.39
2022-08-04T00:27:02.929Z,88.49
2022-08-04T00:28:03.814Z,88.59
2022-08-04T00:29:04.694Z,88.29
2022-08-04T00:30:05.586Z,88.39
2022-08-04T00:31:06.461Z,87.99
2022-08-04T00:32:07.234Z,87.68
2022-08-04T00:33:08.117Z,87.79
2022-08-04T00:34:08.998Z,87.48
2022-08-04T00:35:09.893Z,87.48
2022-08-04T00:36:10.762Z,87.48
2022-08-04T00:37:11.646Z,87.58
2022-08-04T00:38:12.531Z,87.88
2022-08-04T00:39:13.475Z,87.68
2022-08-04T00:40:14.325Z,87.68
2022-08-04T00:41:15.207Z,88.23
2022-08-04T00:42:16.089Z,88.33
2022-08-04T00:43:16.970Z,88.53
2022-08-04T00:44:23.314Z,88.94
2022-08-04T00:45:19.632Z,89.08
2022-08-04T00:46:19.518Z,89.28
2022-08-04T00:47:20.658Z,89.59
2022-08-04T00:48:21.102Z,89.39
2022-08-04T00:49:21.983Z,89.39
2022-08-04T00:50:22.873Z,89.28
2022-08-04T00:51:23.747Z,89.18
2022-08-04T00:52:30.662Z,88.88
2022-08-04T00:53:26.397Z,88.78
2022-08-04T00:54:26.284Z,89.28
2022-08-04T00:55:27.170Z,89.18
2022-08-04T00:56:28.053Z,88.78
2022-08-04T00:57:34.589Z,88.57
2022-08-04T00:58:30.701Z,88.68
2022-08-04T00:59:30.587Z,88.98
2022-08-04T01:00:31.475Z,89.18
2022-08-04T01:01:32.417Z,89.18
2022-08-04T01:02:33.253Z,89.18
2022-08-04T01:03:34.138Z,89.32
2022-08-04T01:04:35.021Z,89.43
2022-08-04T01:05:36.628Z,89.53
2022-08-04T01:06:36.413Z,89.23
2022-08-04T01:07:37.287Z,89.43
2022-08-04T01:08:38.169Z,89.32
2022-08-04T01:09:39.041Z,89.83
2022-08-04T01:10:39.936Z,89.83
2022-08-04T01:11:56.931Z,89.73
2022-08-04T01:12:42.585Z,89.73
2022-08-04T01:13:42.457Z,89.94
2022-08-04T01:14:43.336Z,90.14
2022-08-04T01:15:59.467Z,90.44
2022-08-04T01:16:45.996Z,90.03
2022-08-04T01:17:45.879Z,89.94
2022-08-04T01:18:46.760Z,90.14
2022-08-04T01:19:47.633Z,90.24
2022-08-04T01:20:48.526Z,90.34
2022-08-04T01:21:49.410Z,90.48
2022-08-04T01:22:50.290Z,89.98
2022-08-04T01:23:51.165Z,89.63
2022-08-04T01:24:52.047Z,89.87
2022-08-04T01:25:52.930Z,89.94
2022-08-04T01:26:57.944Z,89.63
2022-08-04T01:27:54.262Z,89.32
2022-08-04T01:28:54.760Z,89.12
2022-08-04T01:29:55.661Z,89.43
2022-08-04T01:30:56.083Z,89.23
2022-08-04T01:31:56.969Z,89.83
2022-08-04T01:32:57.849Z,89.12
2022-08-04T01:34:04.426Z,88.82
2022-08-04T01:35:00.491Z,89.83
2022-08-04T01:36:00.374Z,89.63
2022-08-04T01:37:01.262Z,89.73
2022-08-04T01:38:02.130Z,89.98
2022-08-04T01:39:03.942Z,89.57
2022-08-04T01:40:03.771Z,89.67
2022-08-04T01:41:04.661Z,89.87
2022-08-04T01:42:05.548Z,89.77
2022-08-04T01:43:06.379Z,90.48
2022-08-04T01:44:07.253Z,90.08
2022-08-04T01:45:08.144Z,90.38
2022-08-04T01:46:09.016Z,90.28
2022-08-04T01:47:09.899Z,90.48
2022-08-04T01:48:10.783Z,90.18
2022-08-04T01:49:11.670Z,90.38
2022-08-04T01:50:12.553Z,89.98
2022-08-04T01:51:13.448Z,89.98
2022-08-04T01:52:14.319Z,90.58
2022-08-04T01:53:15.197Z,90.38
2022-08-04T01:54:16.069Z,89.98
2022-08-04T01:55:16.943Z,89.98
2022-08-04T01:56:17.837Z,90.28
2022-08-04T01:57:36.649Z,90.18
2022-08-04T01:58:20.487Z,89.77
2022-08-04T01:59:20.369Z,90.08
2022-08-04T02:00:21.258Z,89.77
2022-08-04T02:01:22.212Z,89.37
2022-08-04T02:02:23.254Z,89.26
2022-08-04T02:03:23.620Z,89.06
2022-08-04T02:04:25.389Z,88.66
2022-08-04T02:05:25.268Z,88.66
2022-08-04T02:06:25.884Z,88.56
2022-08-04T02:07:26.765Z,88.76
2022-08-04T02:08:27.649Z,89.06
2022-08-04T02:09:28.168Z,89.37
2022-08-04T02:10:29.038Z,89.47
2022-08-04T02:11:29.926Z,90.02
2022-08-04T02:12:30.804Z,90.02
2022-08-04T02:13:31.682Z,90.12
2022-08-04T02:14:32.566Z,90.02
2022-08-04T02:15:33.446Z,89.72
2022-08-04T02:16:34.340Z,90.02
2022-08-04T02:17:35.222Z,90.02
2022-08-04T02:18:36.105Z,89.81
2022-08-04T02:19:36.987Z,89.51
2022-08-04T02:20:37.865Z,89.31
2022-08-04T02:21:42.273Z,89.41
2022-08-04T02:22:39.260Z,89.01
2022-08-04T02:23:40.142Z,89.11
2022-08-04T02:24:41.017Z,88.90
2022-08-04T02:25:41.897Z,88.70
2022-08-04T02:26:42.792Z,88.80
2022-08-04T02:27:59.718Z,89.21
2022-08-04T02:28:45.447Z,89.01
2022-08-04T02:29:45.329Z,89.11
2022-08-04T02:30:46.201Z,89.61
2022-08-04T02:31:47.089Z,89.86
2022-08-04T02:32:47.975Z,89.96
2022-08-04T02:33:48.855Z,90.26
2022-08-04T02:34:49.727Z,90.88
2022-08-04T02:35:50.513Z,90.26
2022-08-04T02:36:51.393Z,90.36
2022-08-04T02:37:52.286Z,90.36
2022-08-04T02:38:53.184Z,90.06
2022-08-04T02:39:54.201Z,90.26
2022-08-04T02:40:54.631Z,90.06
2022-08-04T02:41:55.281Z,90.47
2022-08-04T02:42:56.155Z,90.36
2022-08-04T02:43:57.041Z,90.16
2022-08-04T02:44:57.923Z,90.26
2022-08-04T02:45:58.828Z,90.16
2022-08-04T02:46:59.702Z,90.51
2022-08-04T02:48:29.610Z,91.02
2022-08-04T02:49:02.356Z,91.12
2022-08-04T02:50:02.237Z,91.12
2022-08-04T02:51:02.792Z,91.12
2022-08-04T02:52:03.674Z,91.63
2022-08-04T02:53:04.549Z,91.42
2022-08-04T02:54:06.315Z,92.03
2022-08-04T02:55:06.194Z,92.07
2022-08-04T02:56:07.099Z,91.67
2022-08-04T02:57:08.309Z,91.73
2022-08-04T02:58:08.812Z,91.93
2022-08-04T02:59:09.698Z,91.47
2022-08-04T03:00:10.577Z,91.16
2022-08-04T03:01:11.517Z,91.26
2022-08-04T03:02:12.349Z,91.26
2022-08-04T03:03:13.222Z,91.06
2022-08-04T03:04:24.425Z,91.16
2022-08-04T03:05:15.873Z,91.26
2022-08-04T03:06:15.766Z,91.26
2022-08-04T03:07:16.665Z,91.56
2022-08-04T03:08:17.525Z,91.26
2022-08-04T03:09:18.403Z,91.56
2022-08-04T03:10:19.292Z,91.97
2022-08-04T03:11:20.178Z,91.91
2022-08-04T03:12:21.061Z,91.61
2022-08-04T03:13:21.947Z,91.61
2022-08-04T03:14:22.827Z,91.51
2022-08-04T03:15:23.702Z,91.51
2022-08-04T03:16:24.596Z,91.51
2022-08-04T03:17:26.365Z,91.20
2022-08-04T03:18:26.246Z,91.20
2022-08-04T03:19:27.123Z,91.41
2022-08-04T03:20:28.001Z,91.41
2022-08-04T03:21:28.894Z,91.41
2022-08-04T03:22:29.778Z,91.20
2022-08-04T03:23:30.659Z,92.02
2022-08-04T03:24:31.545Z,92.12
2022-08-04T03:25:32.425Z,92.32
2022-08-04T03:26:33.316Z,92.32
2022-08-04T03:27:34.198Z,92.63
2022-08-04T03:28:35.071Z,92.26
2022-08-04T03:29:37.175Z,92.42
2022-08-04T03:30:36.738Z,92.72
2022-08-04T03:31:37.614Z,92.83
2022-08-04T03:32:38.499Z,93.24
2022-08-04T03:33:39.379Z,93.84
2022-08-04T03:34:40.255Z,93.44
2022-08-04T03:35:41.106Z,93.13
2022-08-04T03:36:41.926Z,93.33
2022-08-04T03:37:42.802Z,93.24
2022-08-04T03:38:43.688Z,93.44
2022-08-04T03:39:45.470Z,93.03
2022-08-04T03:40:45.301Z,92.63
2022-08-04T03:41:55.089Z,93.24
2022-08-04T03:42:47.848Z,93.13
2022-08-04T03:43:57.691Z,93.07
2022-08-04T03:44:49.444Z,92.83
2022-08-04T03:45:49.293Z,93.18
2022-08-04T03:46:50.122Z,92.72
2022-08-04T03:47:50.963Z,93.13
2022-08-04T03:48:51.791Z,93.03
2022-08-04T03:49:52.571Z,92.93
2022-08-04T03:50:53.401Z,92.42
2022-08-04T03:51:54.228Z,92.22
2022-08-04T03:52:55.046Z,92.26
2022-08-04T03:53:55.874Z,92.16
2022-08-04T03:54:56.703Z,92.57
2022-08-04T03:55:57.540Z,92.36
2022-08-04T03:56:58.369Z,92.47
2022-08-04T03:57:59.198Z,92.47
2022-08-04T03:59:00.028Z,92.06
2022-08-04T04:00:00.868Z,91.75
2022-08-04T04:01:01.694Z,91.82
2022-08-04T04:02:06.503Z,91.51
2022-08-04T04:03:03.323Z,91.96
2022-08-04T04:04:04.151Z,91.61
2022-08-04T04:05:04.970Z,92.36
2022-08-04T04:06:05.828Z,92.77
2022-08-04T04:07:06.458Z,92.16
2022-08-04T04:08:13.705Z,92.67
2022-08-04T04:09:20.426Z,93.18
2022-08-04T04:10:09.604Z,93.18
2022-08-04T04:11:09.442Z,93.28
2022-08-04T04:12:10.271Z,93.28
2022-08-04T04:13:11.100Z,93.59
2022-08-04T04:14:11.928Z,94.09
2022-08-04T04:15:12.748Z,93.99
2022-08-04T04:16:13.586Z,93.99
2022-08-04T04:17:14.416Z,94.60
2022-08-04T04:18:15.245Z,94.50
2022-08-04T04:19:16.074Z,93.89
2022-08-04T04:20:16.893Z,93.89
2022-08-04T04:21:17.730Z,93.89
2022-08-04T04:22:18.560Z,93.48
2022-08-04T04:23:19.388Z,93.18
2022-08-04T04:24:20.216Z,92.87
2022-08-04T04:25:21.048Z,93.07
2022-08-04T04:26:21.898Z,93.07
2022-08-04T04:27:23.192Z,93.28
2022-08-04T04:28:45.221Z,93.89
2022-08-04T04:29:25.351Z,93.48
2022-08-04T04:30:25.179Z,92.77
2022-08-04T04:31:26.019Z,92.87
2022-08-04T04:32:26.846Z,92.57
2022-08-04T04:33:27.683Z,92.57
2022-08-04T04:34:28.505Z,92.36
2022-08-04T04:35:29.324Z,92.77
2022-08-04T04:36:30.163Z,92.57
2022-08-04T04:37:30.981Z,92.26
2022-08-04T04:38:31.810Z,92.87
2022-08-04T04:39:32.732Z,92.57
2022-08-04T04:40:33.567Z,92.47
2022-08-04T04:41:34.396Z,92.77
2022-08-04T04:42:35.229Z,92.77
2022-08-04T04:43:51.732Z,92.97
2022-08-04T04:44:37.758Z,92.87
2022-08-04T04:45:37.578Z,92.47
2022-08-04T04:46:38.415Z,92.87
2022-08-04T04:48:09.089Z,92.77
2022-08-04T04:48:40.948Z,92.97
2022-08-04T04:49:40.768Z,93.07
2022-08-04T04:50:41.596Z,93.48
2022-08-04T04:51:42.438Z,93.07
2022-08-04T04:52:43.266Z,92.97
2022-08-04T04:53:44.081Z,92.67
2022-08-04T04:54:44.911Z,92.97
2022-08-04T04:55:48.275Z,93.38
2022-08-04T04:56:46.707Z,93.79
2022-08-04T04:57:54.370Z,93.89
2022-08-04T04:58:49.241Z,94.09
2022-08-04T04:59:49.059Z,94.09
2022-08-04T05:00:49.887Z,94.80
2022-08-04T05:01:50.718Z,94.60
2022-08-04T05:02:51.545Z,95.10
2022-08-04T05:03:52.364Z,95.10
2022-08-04T05:04:53.193Z,94.90
2022-08-04T05:05:54.020Z,94.86
2022-08-04T05:06:54.867Z,94.76
2022-08-04T05:07:55.687Z,94.25
2022-08-04T05:08:56.516Z,94.45
2022-08-04T05:09:57.346Z,94.05
2022-08-04T05:10:58.178Z,94.25
2022-08-04T05:11:59.017Z,94.25
2022-08-04T05:14:31.727Z,94.56
2022-08-04T05:14:34.619Z,94.86
2022-08-04T05:15:02.102Z,94.35
2022-08-04T05:16:01.873Z,94.76
2022-08-04T05:17:02.798Z,94.66
2022-08-04T05:18:03.583Z,94.86
2022-08-04T05:19:04.398Z,94.41
2022-08-04T05:20:05.216Z,94.92
2022-08-04T05:21:06.047Z,94.92
2022-08-04T05:22:10.109Z,94.51
2022-08-04T05:23:08.587Z,94.31
2022-08-04T05:24:08.407Z,94.61
2022-08-04T05:25:09.234Z,94.10
2022-08-04T05:26:10.056Z,93.70
2022-08-04T05:27:10.891Z,94.10
2022-08-04T05:28:11.721Z,94.31
2022-08-04T05:29:12.549Z,94.10
2022-08-04T05:30:13.399Z,94.51
2022-08-04T05:31:14.231Z,94.51
2022-08-04T05:32:15.057Z,94.61
2022-08-04T05:33:15.907Z,94.71
2022-08-04T05:34:16.828Z,94.61
2022-08-04T05:35:47.754Z,94.92
2022-08-04T05:36:39.590Z,95.42
2022-08-04T05:37:20.358Z,95.83
2022-08-04T05:38:19.776Z,95.73
2022-08-04T05:39:20.671Z,96.03
2022-08-04T05:40:21.455Z,95.99
2022-08-04T05:41:22.283Z,95.99
2022-08-04T05:42:23.456Z,96.19
2022-08-04T05:43:23.780Z,96.09
2022-08-04T05:44:24.628Z,96.50
2022-08-04T05:45:25.463Z,95.99
2022-08-04T05:46:26.306Z,96.50
2022-08-04T05:47:27.185Z,95.94
2022-08-04T05:48:28.018Z,96.04
2022-08-04T05:49:28.859Z,95.94
2022-08-04T05:50:29.669Z,95.64
2022-08-04T05:51:30.372Z,95.54
2022-08-04T05:52:31.213Z,96.04
2022-08-04T05:53:32.045Z,96.00
2022-08-04T05:54:32.875Z,96.20
2022-08-04T05:55:48.982Z,96.61
2022-08-04T05:56:35.418Z,96.61
2022-08-04T05:57:35.258Z,96.41
2022-08-04T05:58:36.084Z,96.46
2022-08-04T05:59:36.919Z,96.26
2022-08-04T06:00:41.334Z,96.87
2022-08-04T06:01:56.373Z,96.56
2022-08-04T06:02:40.236Z,96.51
2022-08-04T06:03:40.049Z,96.72
2022-08-04T06:04:40.882Z,95.81
2022-08-04T06:05:41.698Z,96.07
2022-08-04T06:06:42.530Z,96.37
2022-08-04T06:08:12.624Z,96.17
2022-08-04T06:08:45.075Z,95.97
2022-08-04T06:09:44.907Z,95.46
2022-08-04T06:10:45.734Z,94.81
2022-08-04T06:11:59.124Z,94.40
2022-08-04T06:12:48.288Z,94.40
2022-08-04T06:13:50.881Z,94.00
2022-08-04T06:14:48.929Z,94.26
2022-08-04T06:15:49.757Z,92.94
2022-08-04T06:16:51.480Z,93.65
2022-08-04T06:19:57.054Z,93.15
2022-08-04T06:19:59.803Z,92.40
2022-08-04T06:20:00.351Z,92.44
2022-08-04T06:20:54.600Z,92.19
2022-08-04T06:21:54.583Z,93.20
2022-08-04T06:22:55.387Z,93.60
2022-08-04T06:24:00.746Z,92.19
2022-08-04T06:24:57.945Z,91.99
2022-08-04T06:25:57.761Z,91.24
2022-08-04T06:26:58.591Z,90.73
2022-08-04T06:27:59.419Z,90.73
2022-08-04T06:29:00.238Z,90.43
2022-08-04T06:30:01.074Z,90.33
2022-08-04T06:31:01.897Z,89.83
2022-08-04T06:32:31.651Z,89.48
2022-08-04T06:33:05.304Z,90.08
2022-08-04T06:34:04.159Z,90.19
2022-08-04T06:35:04.976Z,89.68
2022-08-04T06:36:05.818Z,89.03
2022-08-04T06:37:06.648Z,88.53
2022-08-04T06:38:07.482Z,88.93
2022-08-04T06:39:08.321Z,88.83
2022-08-04T06:40:16.752Z,89.03
2022-08-04T06:41:10.852Z,88.48
2022-08-04T06:42:22.161Z,88.39
2022-08-04T06:43:12.405Z,88.59
2022-08-04T06:44:12.231Z,88.65
2022-08-04T06:45:13.051Z,87.74
2022-08-04T06:46:13.879Z,87.34
2022-08-04T06:47:14.743Z,86.93
2022-08-04T06:48:15.546Z,86.93
2022-08-04T06:49:16.369Z,87.23
2022-08-04T06:51:25.744Z,86.89
2022-08-04T06:51:32.751Z,87.29
2022-08-04T06:52:19.635Z,86.89
2022-08-04T06:53:19.454Z,86.58
2022-08-04T06:54:20.291Z,85.98
2022-08-04T06:55:21.117Z,86.15
2022-08-04T06:56:21.945Z,85.84
2022-08-04T06:57:23.039Z,85.14
2022-08-04T06:58:23.368Z,85.10
2022-08-04T06:59:24.174Z,84.49
2022-08-04T07:00:25.042Z,84.29
2022-08-04T07:01:25.663Z,84.35
2022-08-04T07:02:26.469Z,84.55
2022-08-04T07:03:27.283Z,84.55
2022-08-04T07:04:28.112Z,84.75
2022-08-04T07:05:28.931Z,84.41
2022-08-04T07:06:29.769Z,84.01
2022-08-04T07:07:36.583Z,84.31
2022-08-04T07:08:32.314Z,83.71
2022-08-04T07:09:32.142Z,83.57
2022-08-04T07:10:32.967Z,83.87
2022-08-04T07:11:41.894Z,82.26
2022-08-04T07:12:35.527Z,81.76
2022-08-04T07:13:35.349Z,81.62
2022-08-04T07:14:36.178Z,82.22
2022-08-04T07:15:37.008Z,81.41
2022-08-04T07:16:37.836Z,81.78
2022-08-04T07:17:38.674Z,80.17
2022-08-04T07:18:39.589Z,80.63
2022-08-04T07:19:40.411Z,80.10
2022-08-04T07:20:41.240Z,79.36
2022-08-04T07:21:42.061Z,78.92
2022-08-04T07:22:43.784Z,78.48
2022-08-04T07:23:43.613Z,77.64
2022-08-04T07:24:44.451Z,76.40
2022-08-04T07:26:10.978Z,76.26
2022-08-04T07:26:46.791Z,73.63
2022-08-04T07:27:48.649Z,73.39
2022-08-04T07:28:47.564Z,73.72
2022-08-04T07:29:48.386Z,72.29
2022-08-04T07:30:49.220Z,71.75
2022-08-04T07:31:50.043Z,69.32
2022-08-04T07:32:50.884Z,68.30
2022-08-04T07:34:17.372Z,68.37
2022-08-04T07:34:53.416Z,65.97
2022-08-04T07:36:04.858Z,66.44
2022-08-04T07:36:55.578Z,66.20
2022-08-04T07:37:54.527Z,67.10
2022-08-04T07:38:55.391Z,65.98
2022-08-04T07:39:56.385Z,64.95
2022-08-04T07:40:57.176Z,65.42
2022-08-04T07:41:58.000Z,63.60
2022-08-04T07:42:58.821Z,64.00
2022-08-04T07:43:59.651Z,63.76
2022-08-04T07:45:00.510Z,62.64
2022-08-04T07:46:01.307Z,61.25
2022-08-04T07:47:02.140Z,62.45
2022-08-04T07:48:05.011Z,61.62
2022-08-04T07:49:03.594Z,61.22
2022-08-04T07:50:04.417Z,60.40
2022-08-04T07:51:05.249Z,60.30
2022-08-04T07:52:05.843Z,61.59
2022-08-04T07:53:54.117Z,59.88
2022-08-04T07:54:08.390Z,60.67
2022-08-04T07:55:08.212Z,60.14
2022-08-04T07:56:09.039Z,61.33
2022-08-04T07:57:20.671Z,61.10
2022-08-04T07:58:11.606Z,58.13
2022-08-04T07:59:11.443Z,59.22
2022-08-04T08:00:12.271Z,59.19
2022-08-04T08:01:13.101Z,57.02
2022-08-04T08:02:13.922Z,57.78
2022-08-04T08:03:14.833Z,57.98
2022-08-04T08:04:15.642Z,57.58
2022-08-04T08:05:16.472Z,55.58
2022-08-04T08:06:33.308Z,55.68
2022-08-04T08:07:19.130Z,56.27
2022-08-04T08:08:18.920Z,56.76
2022-08-04T08:09:19.752Z,56.14
2022-08-04T08:10:20.585Z,54.86
2022-08-04T08:11:21.409Z,55.26
2022-08-04T08:12:36.284Z,54.86
2022-08-04T08:13:23.964Z,56.27
2022-08-04T08:14:23.793Z,56.67
2022-08-04T08:15:24.634Z,57.56
2022-08-04T08:16:25.636Z,57.29
2022-08-04T08:17:26.415Z,56.40
2022-08-04T08:18:27.269Z,57.41
2022-08-04T08:19:28.095Z,57.71
2022-08-04T08:20:30.386Z,58.20
2022-08-04T08:21:29.444Z,59.39
2022-08-04T08:22:30.271Z,58.50
2022-08-04T08:23:31.116Z,58.01
2022-08-04T08:24:31.945Z,58.80
2022-08-04T08:25:32.762Z,59.69
2022-08-04T08:26:33.596Z,59.00
2022-08-04T08:27:34.423Z,59.52
2022-08-04T08:28:35.277Z,56.42
2022-08-04T08:29:36.104Z,56.25
2022-08-04T08:30:36.925Z,57.04
2022-08-04T08:31:56.504Z,56.55
2022-08-04T08:32:39.459Z,57.84
2022-08-04T08:33:39.300Z,58.63
2022-08-04T08:34:40.131Z,59.92
2022-08-04T08:35:53.431Z,60.02
2022-08-04T08:36:42.680Z,61.21
2022-08-04T08:37:42.497Z,60.11
2022-08-04T08:38:43.335Z,60.11
2022-08-04T08:39:44.268Z,59.22
2022-08-04T08:40:45.079Z,58.33
2022-08-04T08:41:45.900Z,59.81
2022-08-04T08:42:47.620Z,60.41
2022-08-04T08:44:04.584Z,60.81
2022-08-04T08:44:49.165Z,60.61
2022-08-04T08:45:48.991Z,60.02
2022-08-04T08:46:50.432Z,59.62
2022-08-04T08:48:04.949Z,59.32
2022-08-04T08:48:52.493Z,58.43
2022-08-04T08:50:00.719Z,58.83
2022-08-04T08:50:54.029Z,58.53
2022-08-04T08:51:53.859Z,58.23
2022-08-04T08:53:00.617Z,59.30
2022-08-04T08:53:56.410Z,58.11
2022-08-04T08:54:56.245Z,58.40
2022-08-04T08:55:57.065Z,58.90
2022-08-04T08:56:57.899Z,61.18
2022-08-04T08:57:59.788Z,59.19
2022-08-04T08:58:59.408Z,56.42
2022-08-04T09:00:00.228Z,58.73
2022-08-04T09:01:01.054Z,57.93
2022-08-04T09:02:01.982Z,57.84
2022-08-04T09:03:04.807Z,56.05
2022-08-04T09:04:03.666Z,55.16
2022-08-04T09:05:04.495Z,54.77
2022-08-04T09:06:05.329Z,54.07
2022-08-04T09:07:06.153Z,52.88
2022-08-04T09:08:06.985Z,53.48
2022-08-04T09:09:07.837Z,54.24
2022-08-04T09:10:08.672Z,52.76
2022-08-04T09:11:09.494Z,51.47
2022-08-04T09:12:10.319Z,51.67
2022-08-04T09:13:11.149Z,53.85
2022-08-04T09:14:12.013Z,54.24
2022-08-04T09:15:12.840Z,52.07
2022-08-04T09:16:13.663Z,54.44
2022-08-04T09:17:14.549Z,55.24
2022-08-04T09:18:15.333Z,55.24
2022-08-04T09:19:17.655Z,54.94
2022-08-04T09:20:17.915Z,55.33
2022-08-04T09:21:17.721Z,54.94
2022-08-04T09:22:18.535Z,55.24
2022-08-04T09:23:19.365Z,55.01
2022-08-04T09:24:35.404Z,57.09
2022-08-04T09:25:21.923Z,55.60
2022-08-04T09:26:21.751Z,56.00
2022-08-04T09:27:22.843Z,55.90
2022-08-04T09:28:50.807Z,54.22
2022-08-04T09:29:25.063Z,52.24
2022-08-04T09:30:24.887Z,52.73
2022-08-04T09:31:25.716Z,53.89
2022-08-04T09:32:26.549Z,52.71
2022-08-04T09:33:44.468Z,52.51
2022-08-04T09:34:29.098Z,52.61
2022-08-04T09:35:28.928Z,49.84
2022-08-04T09:36:29.757Z,52.22
2022-08-04T09:37:30.586Z,49.35
2022-08-04T09:38:31.413Z,50.53
2022-08-04T09:39:32.310Z,51.42
2022-08-04T09:40:52.434Z,51.03
2022-08-04T09:41:47.361Z,51.42
2022-08-04T09:42:35.243Z,52.12
2022-08-04T09:43:58.760Z,51.42
2022-08-04T09:44:50.409Z,51.72
2022-08-04T09:45:42.352Z,51.82
2022-08-04T09:46:38.238Z,52.01
2022-08-04T09:47:40.348Z,50.71
2022-08-04T09:48:38.534Z,50.71
2022-08-04T09:49:39.378Z,49.32
2022-08-04T09:50:40.214Z,48.14
2022-08-04T09:51:58.295Z,48.24
2022-08-04T09:52:42.756Z,49.42
2022-08-04T09:53:42.587Z,45.86
2022-08-04T09:54:43.438Z,46.45
2022-08-04T09:55:53.705Z,47.74
2022-08-04T09:56:46.021Z,49.22
2022-08-04T09:57:45.809Z,49.22
2022-08-04T09:58:46.644Z,48.83
2022-08-04T09:59:47.486Z,48.11
2022-08-04T10:00:48.310Z,48.61
2022-08-04T10:01:49.145Z,48.90
2022-08-04T10:02:50.965Z,49.30
2022-08-04T10:03:50.756Z,52.26
2022-08-04T10:04:51.588Z,52.86
2022-08-04T10:05:52.412Z,53.15
2022-08-04T10:06:53.231Z,53.35
2022-08-04T10:08:04.669Z,53.55
2022-08-04T10:08:57.251Z,54.11
2022-08-04T10:09:55.700Z,53.42
2022-08-04T10:10:56.531Z,53.92
2022-08-04T10:11:57.360Z,53.81
2022-08-04T10:12:58.177Z,54.04
2022-08-04T10:13:59.002Z,53.42
2022-08-04T10:14:59.847Z,52.86
2022-08-04T10:16:00.662Z,53.45
2022-08-04T10:17:01.490Z,52.95
2022-08-04T10:18:02.309Z,53.15
2022-08-04T10:19:07.794Z,53.25
2022-08-04T10:20:04.855Z,53.75
2022-08-04T10:21:09.121Z,53.55
2022-08-04T10:22:28.054Z,52.86
2022-08-04T10:23:11.500Z,52.76
2022-08-04T10:24:07.834Z,53.55
2022-08-04T10:25:44.459Z,52.26
2022-08-04T10:26:09.409Z,51.57
2022-08-04T10:27:09.195Z,51.77
2022-08-04T10:28:10.025Z,52.17
2022-08-04T10:29:10.857Z,51.97
2022-08-04T10:30:11.723Z,52.46
2022-08-04T10:31:12.503Z,52.26
2022-08-04T10:32:13.447Z,51.77
2022-08-04T10:33:14.212Z,51.77
2022-08-04T10:34:15.045Z,51.77
2022-08-04T10:35:15.887Z,51.97
2022-08-04T10:36:16.715Z,51.47
2022-08-04T10:37:17.542Z,51.87
2022-08-04T10:38:18.376Z,51.47
2022-08-04T10:39:43.377Z,51.57
2022-08-04T10:40:20.927Z,51.97
2022-08-04T10:41:20.746Z,52.56
2022-08-04T10:42:21.580Z,52.26
2022-08-04T10:43:23.051Z,51.94
2022-08-04T10:44:23.380Z,51.35
2022-08-04T10:45:24.213Z,51.05
2022-08-04T10:46:25.042Z,51.15
2022-08-04T10:47:25.867Z,50.95
2022-08-04T10:48:34.526Z,51.35
2022-08-04T10:49:28.413Z,51.25
2022-08-04T10:50:28.257Z,50.46
2022-08-04T10:51:28.963Z,50.76
2022-08-04T10:52:29.791Z,49.94
2022-08-04T10:53:30.626Z,50.24
2022-08-04T10:54:31.446Z,50.24
2022-08-04T10:56:07.879Z,50.14
2022-08-04T10:56:33.991Z,50.54
2022-08-04T10:57:33.814Z,49.15
2022-08-04T10:58:48.004Z,50.63
2022-08-04T10:59:36.357Z,50.54
2022-08-04T11:00:36.195Z,48.07
2022-08-04T11:02:02.992Z,47.28
2022-08-04T11:02:38.765Z,46.39
2022-08-04T11:03:38.550Z,46.19
2022-08-04T11:04:39.400Z,47.47
2022-08-04T11:05:44.189Z,47.18
2022-08-04T11:06:40.863Z,48.27
2022-08-04T11:07:41.682Z,47.87
2022-08-04T11:08:42.518Z,47.57
2022-08-04T11:09:43.333Z,47.47
2022-08-04T11:10:44.189Z,48.27
2022-08-04T11:11:57.142Z,48.34
2022-08-04T11:12:46.714Z,46.96
2022-08-04T11:13:47.135Z,47.45
2022-08-04T11:14:47.074Z,46.96
2022-08-04T11:15:47.925Z,47.25
2022-08-04T11:16:48.522Z,46.37
2022-08-04T11:17:49.361Z,46.07
2022-08-04T11:18:50.182Z,46.69
2022-08-04T11:19:53.937Z,46.96
2022-08-04T11:20:52.730Z,46.86
2022-08-04T11:21:52.388Z,46.56
2022-08-04T11:22:53.219Z,46.17
2022-08-04T11:23:54.041Z,45.48
2022-08-04T11:24:54.879Z,47.35
2022-08-04T11:25:55.698Z,47.45
2022-08-04T11:26:56.528Z,47.75
2022-08-04T11:27:57.347Z,48.14
2022-08-04T11:29:03.217Z,47.25
2022-08-04T11:29:59.890Z,47.25
2022-08-04T11:30:59.732Z,47.06
2022-08-04T11:32:00.560Z,48.32
2022-08-04T11:33:01.390Z,47.94
2022-08-04T11:34:02.221Z,48.74
2022-08-04T11:35:03.048Z,48.93
2022-08-04T11:36:03.895Z,48.04
2022-08-04T11:37:04.727Z,48.83
2022-08-04T11:38:06.435Z,47.94
2022-08-04T11:39:06.299Z,46.37
2022-08-04T11:40:07.123Z,47.06
2022-08-04T11:41:07.963Z,46.47
2022-08-04T11:42:08.796Z,46.66
2022-08-04T11:43:09.627Z,45.87
2022-08-04T11:44:12.688Z,45.85
2022-08-04T11:45:11.196Z,46.15
2022-08-04T11:46:12.057Z,46.44
2022-08-04T11:47:13.074Z,46.64
2022-08-04T11:48:13.423Z,48.22
2022-08-04T11:49:14.257Z,47.63
2022-08-04T11:50:15.070Z,47.53
2022-08-04T11:51:15.908Z,47.82
2022-08-04T11:52:17.924Z,47.41
2022-08-04T11:53:17.347Z,47.21
2022-08-04T11:54:18.169Z,45.53
2022-08-04T11:55:18.998Z,46.22
2022-08-04T11:56:35.771Z,46.12
2022-08-04T11:57:21.725Z,46.22
2022-08-04T11:58:21.409Z,45.83
2022-08-04T11:59:22.226Z,45.24
2022-08-04T12:00:23.044Z,44.65
2022-08-04T12:01:23.884Z,45.34
2022-08-04T12:02:24.821Z,46.52
2022-08-04T12:03:25.616Z,46.20
2022-08-04T12:04:26.449Z,46.20
2022-08-04T12:05:35.871Z,46.10
2022-08-04T12:06:28.998Z,46.40
2022-08-04T12:07:30.990Z,45.51
2022-08-04T12:08:29.790Z,44.62
2022-08-04T12:09:30.617Z,44.23
2022-08-04T12:10:39.077Z,45.02
2022-08-04T12:11:33.187Z,45.21
2022-08-04T12:12:33.015Z,43.84
2022-08-04T12:13:33.829Z,44.23
2022-08-04T12:14:34.656Z,44.23
2022-08-04T12:15:35.477Z,44.43
2022-08-04T12:16:36.319Z,44.92
2022-08-04T12:17:53.396Z,44.13
2022-08-04T12:18:38.871Z,44.43
2022-08-04T12:19:53.909Z,45.02
2022-08-04T12:20:41.789Z,45.90
2022-08-04T12:21:40.134Z,44.33
2022-08-04T12:22:41.669Z,44.03
2022-08-04T12:23:41.474Z,44.33
2022-08-04T12:24:42.321Z,43.64
2022-08-04T12:25:45.108Z,43.93
2022-08-04T12:26:44.134Z,44.90
2022-08-04T12:27:44.963Z,45.49
2022-08-04T12:29:09.056Z,45.19
2022-08-04T12:31:00.060Z,45.19
2022-08-04T12:31:02.596Z,43.32
2022-08-04T12:31:48.958Z,43.32
2022-08-04T12:32:53.720Z,43.91
2022-08-04T12:34:04.547Z,44.80
2022-08-04T12:34:51.208Z,44.90
2022-08-04T12:36:11.293Z,43.82
2022-08-04T12:36:52.760Z,42.93
2022-08-04T12:37:52.598Z,43.52
2022-08-04T12:38:53.469Z,44.80
2022-08-04T12:40:27.843Z,45.39
2022-08-04T12:40:55.964Z,44.90
2022-08-04T12:41:55.794Z,44.19
2022-08-04T12:42:59.882Z,44.88
2022-08-04T12:43:57.343Z,43.99
2022-08-04T12:44:58.181Z,43.60
2022-08-04T12:45:59.013Z,44.09
2022-08-04T12:47:28.510Z,44.48
2022-08-04T12:48:01.561Z,43.70
2022-08-04T12:49:01.388Z,44.48
2022-08-04T12:50:02.895Z,44.38
2022-08-04T12:51:02.915Z,43.99
2022-08-04T12:52:08.136Z,43.97
2022-08-04T12:53:05.475Z,43.97
2022-08-04T12:54:05.283Z,43.18
2022-08-04T12:55:06.112Z,43.60
2022-08-04T12:56:06.943Z,43.10
2022-08-04T12:57:07.782Z,43.70
2022-08-04T12:58:08.628Z,44.07
2022-08-04T12:59:12.904Z,43.70
2022-08-04T13:00:09.952Z,44.26
2022-08-04T13:02:08.773Z,45.05
2022-08-04T13:02:12.548Z,45.05
2022-08-04T13:03:12.426Z,44.76